Data for 01/13/2016

Time Sea-Level Adjusted Pressure Absolute Pressure Temperature Relative Humidity Dew Point   
(mb) (inHg) (mb) (inHg) (C) (F) (%) (C) (F)
00:05 1017 30.03 846 24.98 -1.6 29.1 60 -8.3 17.1
00:10 1017 30.03 846 24.98 -1.5 29.2 60 -8.4 16.9
00:15 1017 30.03 846 24.98 -1.3 29.6 59 -8.2 17.2
00:20 1017 30.03 846 24.98 -1.3 29.7 60 -8 17.6
00:25 1017 30.03 846 24.98 -1.2 29.8 59 -8.2 17.3
00:30 1017 30.03 846 24.98 -1.1 29.9 63 -7.4 18.7
00:35 1017 30.03 846 24.98 -1.5 29.3 62 -7.8 17.9
00:40 1017 30.03 846 24.98 -1.4 29.5 63 -7.6 18.4
00:45 1017 30.03 846 24.98 -1.4 29.4 64 -7.4 18.7
00:50 1017 30.03 846 24.98 -1.9 28.5 67 -7.3 18.8
00:55 1017 30.03 846 24.98 -2.2 28.1 67 -7.5 18.5
01:00 1017 30.03 846 24.98 -2.1 28.1 63 -8.2 17.3
01:05 1017 30.03 846 24.98 -1.7 28.9 64 -7.7 18.2
01:10 1017 30.03 846 24.98 -1.5 29.3 62 -7.9 17.7
01:15 1016 30 846 24.98 -1.3 29.7 60 -8 17.5
01:20 1016 30 846 24.98 -1.2 29.8 61 -7.8 17.9
01:25 1016 30 846 24.98 -1.3 29.7 62 -7.6 18.4
01:30 1016 30 846 24.98 -1.4 29.5 61 -8 17.6
01:35 1016 30 846 24.98 -1.5 29.3 61 -8.1 17.5
01:40 1016 30 845 24.95 -1.6 29.2 61 -8.2 17.2
01:45 1016 30 845 24.95 -1.7 29 61 -8.2 17.2
01:50 1016 30 845 24.95 -1.7 28.9 61 -8.3 17
01:55 1016 30 845 24.95 -1.7 28.9 61 -8.3 17.1
02:00 1016 30 845 24.95 -1.7 28.9 61 -8.3 17.1
02:05 1016 30 845 24.95 -1.7 28.9 61 -8.2 17.3
02:10 1016 30 845 24.95 -1.8 28.8 63 -8 17.7
02:15 1016 30 845 24.95 -1.9 28.6 62 -8.2 17.2
02:20 1016 30 845 24.95 -1.9 28.6 64 -7.9 17.9
02:25 1016 30 845 24.95 -2.3 27.9 65 -8 17.7
02:30 1016 30 845 24.95 -2.3 27.8 63 -8.4 16.8
02:35 1016 30 845 24.95 -2.1 28.2 64 -8.1 17.4
02:40 1016 30 845 24.95 -2.2 28.1 65 -7.9 17.8
02:45 1016 30 845 24.95 -2.5 27.6 64 -8.4 16.9
02:50 1016 30 845 24.95 -2.2 28 62 -8.5 16.7
02:55 1015 29.97 845 24.95 -2.3 27.8 64 -8.2 17.2
03:00 1015 29.97 845 24.95 -2.4 27.6 62 -8.7 16.4
03:05 1015 29.97 845 24.95 -2.4 27.7 62 -8.6 16.5
03:10 1015 29.97 845 24.95 -2.2 28 61 -8.7 16.3
03:15 1015 29.97 845 24.95 -2.5 27.6 63 -8.6 16.5
03:20 1015 29.97 845 24.95 -2.6 27.3 62 -8.8 16.2
03:25 1015 29.97 845 24.95 -2.2 28 60 -8.9 16
03:30 1015 29.97 845 24.95 -2.2 28 61 -8.7 16.3
03:35 1016 30 845 24.95 -2.2 28 60 -8.9 16.1
03:40 1016 30 845 24.95 -2.1 28.2 61 -8.8 16.2
03:45 1015 29.97 845 24.95 -2.5 27.5 64 -8.5 16.7
03:50 1015 29.97 845 24.95 -2.4 27.6 61 -9 15.7
03:55 1015 29.97 845 24.95 -2.2 28 60 -8.9 15.9
04:00 1015 29.97 845 24.95 -2.7 27.1 63 -8.7 16.3
04:05 1015 29.97 845 24.95 -2.6 27.3 61 -9.2 15.4
04:10 1015 29.97 845 24.95 -2.1 28.2 59 -9.1 15.7
04:15 1015 29.97 845 24.95 -2.2 28.1 59 -9.1 15.6
04:20 1015 29.97 845 24.95 -1.9 28.6 59 -8.8 16.1
04:25 1015 29.97 845 24.95 -2.3 27.8 60 -9.1 15.6
04:30 1015 29.97 845 24.95 -2 28.4 59 -9 15.8
04:35 1015 29.97 844 24.92 -2.9 26.8 63 -8.9 16
04:40 1015 29.97 844 24.92 -2.7 27.1 61 -9.2 15.5
04:45 1015 29.97 844 24.92 -2.7 27.2 61 -9.2 15.5
04:50 1015 29.97 844 24.92 -2.7 27.2 62 -9 15.7
04:55 1015 29.97 844 24.92 -2.7 27.1 61 -9.2 15.5
05:00 1015 29.97 844 24.92 -2.7 27.1 61 -9.3 15.2
05:05 1015 29.97 844 24.92 -2.7 27.1 61 -9.2 15.5
05:10 1015 29.97 844 24.92 -2.8 27 61 -9.3 15.3
05:15 1015 29.97 844 24.92 -2.5 27.6 61 -9.1 15.7
05:20 1015 29.97 844 24.92 -2.6 27.3 60 -9.2 15.4
05:25 1015 29.97 844 24.92 -2.6 27.4 61 -9.1 15.6
05:30 1015 29.97 844 24.92 -3 26.7 63 -9 15.8
05:35 1015 29.97 844 24.92 -3.1 26.5 63 -9.1 15.6
05:40 1014 29.94 844 24.92 -2.7 27.2 62 -9 15.7
05:45 1014 29.94 844 24.92 -2.2 28.1 61 -8.7 16.3
05:50 1014 29.94 843 24.89 -2.2 28.1 61 -8.8 16.2
05:55 1014 29.94 843 24.89 -2 28.5 61 -8.5 16.7
06:00 1014 29.94 843 24.89 -1.8 28.8 61 -8.3 17
06:05 1014 29.94 843 24.89 -2.3 27.8 64 -8.3 17
06:10 1014 29.94 843 24.89 -2.7 27.2 64 -8.6 16.5
06:15 1014 29.94 843 24.89 -2.2 28 60 -8.9 16
06:20 1014 29.94 843 24.89 -1.8 28.8 58 -8.9 16
06:25 1014 29.94 843 24.89 -1.3 29.6 58 -8.7 16.4
06:30 1014 29.94 843 24.89 -1.6 29.2 59 -8.5 16.7
06:35 1014 29.94 843 24.89 -2 28.4 62 -8.3 17
06:40 1014 29.94 843 24.89 -2 28.4 64 -7.9 17.8
06:45 1014 29.94 843 24.89 -2.3 27.9 65 -8 17.6
06:50 1014 29.94 843 24.89 -2.1 28.2 64 -8.1 17.5
06:55 1014 29.94 843 24.89 -1.8 28.7 62 -8.3 17.1
07:00 1014 29.94 843 24.89 -1.5 29.3 62 -7.9 17.8
07:05 1014 29.94 843 24.89 -1.2 29.9 63 -7.2 19
07:10 1014 29.94 843 24.89 -1.1 29.9 63 -7.2 19
07:15 1014 29.94 843 24.89 -1.3 29.7 64 -7.2 19.1
07:20 1014 29.94 843 24.89 -1.5 29.3 66 -7.1 19.3
07:25 1014 29.94 843 24.89 -1.2 29.9 62 -7.4 18.6
07:30 1013 29.91 843 24.89 -0.9 30.4 61 -7.5 18.4
07:35 1013 29.91 843 24.89 -0.6 30.9 59 -7.6 18.3
07:40 1013 29.91 842 24.86 -0.6 30.9 62 -7.1 19.2
07:45 1013 29.91 842 24.86 -1.3 29.7 63 -7.4 18.7
07:50 1013 29.91 842 24.86 -1.4 29.4 63 -7.7 18.2
07:55 1013 29.91 842 24.86 -1.6 29.1 66 -7.2 19.1
08:00 1013 29.91 842 24.86 -1.5 29.2 62 -7.9 17.8
08:05 1013 29.91 842 24.86 -1.1 30 61 -7.7 18.2
08:10 1013 29.91 842 24.86 -0.9 30.5 59 -8 17.6
08:15 1013 29.91 842 24.86 -0.5 31.1 59 -7.7 18.2
08:20 1013 29.91 842 24.86 -0.6 31 60 -7.3 18.8
08:25 1013 29.91 842 24.86 -0.9 30.4 57 -8.3 17.1
08:30 1013 29.91 842 24.86 -0.6 31 63 -6.8 19.7
08:35 1013 29.91 842 24.86 -1.3 29.6 64 -7.3 18.8
08:40 1013 29.91 842 24.86 -1.7 29 62 -8 17.5
08:45 1013 29.91 842 24.86 -1.2 29.8 58 -8.4 16.8
08:50 1013 29.91 842 24.86 -0.6 31 55 -8.6 16.5
08:55 1013 29.91 842 24.86 -0.2 31.7 54 -8.5 16.7
09:00 1013 29.91 842 24.86 -0.2 31.6 56 -8 17.6
09:05 1013 29.91 842 24.86 -0.8 30.6 58 -8 17.7
09:10 1013 29.91 842 24.86 -0.8 30.5 56 -8.5 16.8
09:15 1012 29.88 842 24.86 -0.4 31.3 55 -8.3 17
09:20 1012 29.88 841 24.83 -0.2 31.6 55 -8.1 17.4
09:25 1012 29.88 842 24.86 -0.7 30.8 60 -7.4 18.6
09:30 1012 29.88 842 24.86 -1.2 29.9 59 -8.2 17.3
09:35 1012 29.88 841 24.83 -0.9 30.4 60 -7.7 18.1
09:40 1012 29.88 841 24.83 -1 30.1 58 -8.4 16.9
09:45 1012 29.88 841 24.83 -1.1 30.1 62 -7.5 18.6
09:50 1012 29.88 841 24.83 -1.7 29 63 -7.8 18
09:55 1012 29.88 841 24.83 -2 28.4 63 -8 17.5
10:00 1012 29.88 841 24.83 -2.4 27.8 64 -8.2 17.3
10:05 1012 29.88 841 24.83 -1.8 28.8 60 -8.6 16.5
10:10 1012 29.88 841 24.83 -1.3 29.7 59 -8.4 17
10:15 1012 29.88 841 24.83 -0.7 30.8 54 -8.9 16
10:20 1012 29.88 841 24.83 0.1 32.2 52 -8.6 16.5
10:25 1012 29.88 841 24.83 0.9 33.6 50 -8.3 17
10:30 1012 29.88 841 24.83 0.8 33.5 51 -8.2 17.2
10:35 1012 29.88 841 24.83 0.2 32.3 52 -8.7 16.4
10:40 1012 29.88 841 24.83 -0.5 31.2 53 -9 15.8
10:45 1012 29.88 841 24.83 -0.3 31.5 52 -9 15.9
10:50 1012 29.88 841 24.83 0.3 32.5 51 -8.7 16.3
10:55 1012 29.88 841 24.83 0.3 32.6 50 -8.8 16.1
11:00 1012 29.88 841 24.83 -0 32 51 -9 15.8
11:05 1012 29.88 841 24.83 0.2 32.4 51 -8.7 16.4
11:10 1012 29.88 841 24.83 0 32.1 53 -8.5 16.6
11:15 1012 29.88 841 24.83 -0.1 31.9 54 -8.4 16.9
11:20 1012 29.88 841 24.83 -0.1 31.8 54 -8.4 16.9
11:25 1011 29.85 841 24.83 -0.2 31.6 52 -8.9 15.9
11:30 1011 29.85 841 24.83 0.2 32.3 52 -8.6 16.4
11:35 1011 29.85 841 24.83 1 33.7 48 -8.8 16.1
11:40 1011 29.85 840 24.81 2 35.5 45 -8.8 16.2
11:45 1011 29.85 840 24.81 2.8 37 44 -8.4 16.9
11:50 1011 29.85 840 24.81 3.1 37.6 42 -8.6 16.4
11:55 1011 29.85 840 24.81 3.3 37.9 41 -8.7 16.4
12:00 1011 29.85 840 24.81 3.6 38.5 41 -8.4 16.9
12:05 1011 29.85 840 24.81 2.8 37.1 43 -8.7 16.4
12:10 1011 29.85 840 24.81 3.3 37.9 40 -8.9 15.9
12:15 1011 29.85 840 24.81 3.2 37.8 44 -7.9 17.7
12:20 1011 29.85 840 24.81 2.8 37.1 44 -8.4 16.9
12:25 1011 29.85 840 24.81 3.2 37.7 41 -8.9 15.9
12:30 1011 29.85 840 24.81 3.7 38.6 41 -8.4 16.8
12:35 1011 29.85 840 24.81 3.7 38.7 41 -8.5 16.7
12:40 1011 29.85 840 24.81 3.6 38.4 38 -9.4 15.1
12:45 1011 29.85 840 24.81 2.9 37.3 43 -8.4 16.9
12:50 1011 29.85 840 24.81 3.4 38.1 40 -9.1 15.7
12:55 1011 29.85 840 24.81 3.4 38.1 41 -8.6 16.6
13:00 1010 29.83 840 24.81 3.9 39 41 -8.2 17.2
13:05 1010 29.83 840 24.81 3.5 38.3 42 -8.1 17.4
13:10 1010 29.83 840 24.81 3.6 38.5 40 -8.7 16.4
13:15 1010 29.83 839 24.78 4.2 39.5 38 -8.8 16.1
13:20 1010 29.83 839 24.78 4.7 40.5 38 -8.6 16.6
13:25 1010 29.83 839 24.78 5.1 41.2 35 -9.2 15.4
13:30 1010 29.83 839 24.78 5.4 41.7 33 -9.5 14.8
13:35 1010 29.83 839 24.78 5.2 41.3 34 -9.4 15.1
13:40 1010 29.83 839 24.78 5.8 42.4 34 -8.8 16.2
13:45 1010 29.83 839 24.78 5.1 41.1 39 -7.8 18
13:50 1010 29.83 839 24.78 4.9 40.8 38 -8.3 17.1
13:55 1010 29.83 839 24.78 4.4 39.8 42 -7.6 18.3
14:00 1010 29.83 839 24.78 3.5 38.3 42 -8.3 17.1
14:05 1010 29.83 839 24.78 3.8 38.8 41 -8.2 17.2
14:10 1010 29.83 839 24.78 4.2 39.6 42 -7.6 18.4
14:15 1009 29.8 839 24.78 4.5 40.1 41 -7.6 18.3
14:20 1009 29.8 839 24.78 4.8 40.6 38 -8.3 17.1
14:25 1009 29.8 839 24.78 4.7 40.4 40 -7.8 18
14:30 1009 29.8 838 24.75 5 41 37 -8.6 16.5
14:35 1009 29.8 838 24.75 4.7 40.5 37 -8.9 16
14:40 1009 29.8 838 24.75 4.5 40.2 37 -8.9 16
14:45 1009 29.8 838 24.75 5 40.9 41 -7.1 19.2
14:50 1009 29.8 838 24.75 4.7 40.5 42 -7.2 19.1
14:55 1009 29.8 838 24.75 4.2 39.5 41 -7.9 17.8
15:00 1009 29.8 838 24.75 4.6 40.3 38 -8.4 16.9
15:05 1009 29.8 838 24.75 5.8 42.4 37 -8 17.6
15:10 1009 29.8 838 24.75 5.1 41.2 38 -8 17.6
15:15 1009 29.8 838 24.75 5.6 42.1 36 -8.1 17.4
15:20 1009 29.8 838 24.75 6.3 43.4 34 -8.5 16.6
15:25 1009 29.8 838 24.75 7 44.7 33 -8.1 17.5
15:30 1009 29.8 838 24.75 7.1 44.9 32 -8.3 17.1
15:35 1008 29.77 838 24.75 7.3 45.1 32 -8.5 16.8
15:40 1008 29.77 837 24.72 7.4 45.3 31 -8.8 16.2
15:45 1008 29.77 837 24.72 7.5 45.5 31 -8.5 16.6
15:50 1008 29.77 837 24.72 7.5 45.5 32 -8.3 17.1
15:55 1008 29.77 837 24.72 7.4 45.4 31 -8.4 16.8
16:00 1008 29.77 837 24.72 7.4 45.4 33 -7.8 18
16:05 1008 29.77 837 24.72 7.3 45.2 33 -7.8 18
16:10 1008 29.77 837 24.72 7.3 45.1 33 -8.1 17.4
16:15 1008 29.77 837 24.72 7.3 45.1 34 -7.8 18
16:20 1008 29.77 837 24.72 7.1 44.8 35 -7.3 18.9
16:25 1008 29.77 837 24.72 6.8 44.3 36 -7.1 19.2
16:30 1008 29.77 837 24.72 6.6 43.8 38 -6.8 19.7
16:35 1008 29.77 837 24.72 6.3 43.4 39 -6.6 20
16:40 1008 29.77 837 24.72 6.2 43.1 39 -6.7 19.9
16:45 1008 29.77 837 24.72 6.2 43.2 38 -7.1 19.1
16:50 1008 29.77 837 24.72 6.4 43.6 38 -6.9 19.6
16:55 1008 29.77 837 24.72 6.6 43.9 36 -7.5 18.6
17:00 1008 29.77 837 24.72 6.9 44.4 37 -6.9 19.6
17:05 1008 29.77 837 24.72 6.9 44.4 37 -6.6 20
17:10 1008 29.77 837 24.72 6.8 44.3 38 -6.6 20.1
17:15 1008 29.77 837 24.72 7 44.6 36 -6.9 19.5
17:20 1008 29.77 837 24.72 6.9 44.4 38 -6.4 20.5
17:25 1008 29.77 837 24.72 6.6 43.8 39 -6.4 20.5
17:30 1008 29.77 837 24.72 6.3 43.4 41 -6 21.2
17:35 1008 29.77 837 24.72 6.1 43 41 -6.3 20.7
17:40 1008 29.77 837 24.72 6.1 43 41 -6.3 20.7
17:45 1008 29.77 837 24.72 6.1 43.1 42 -5.8 21.6
17:50 1008 29.77 837 24.72 6.1 42.9 42 -6 21.2
17:55 1008 29.77 837 24.72 6.1 42.9 42 -5.9 21.3
18:00 1008 29.77 837 24.72 6 42.8 43 -5.8 21.6
18:05 1008 29.77 837 24.72 6 42.7 42 -6 21.2
18:10 1008 29.77 837 24.72 5.9 42.7 43 -5.7 21.8
18:15 1008 29.77 837 24.72 5.7 42.3 44 -5.5 22.1
18:20 1008 29.77 837 24.72 5.5 42 46 -5.2 22.6
18:25 1008 29.77 837 24.72 5.2 41.4 46 -5.5 22.1
18:30 1008 29.77 837 24.72 5.2 41.4 45 -5.7 21.8
18:35 1007 29.74 837 24.72 5.4 41.8 44 -5.8 21.6
18:40 1007 29.74 837 24.72 5.6 42.1 44 -5.6 21.9
18:45 1007 29.74 837 24.72 5.6 42.1 46 -5.2 22.6
18:50 1007 29.74 837 24.72 5.4 41.7 46 -5.3 22.5
18:55 1007 29.74 837 24.72 5.1 41.2 47 -5.2 22.6
19:00 1007 29.74 836 24.69 5 40.9 48 -5.1 22.9
19:05 1007 29.74 837 24.72 4.8 40.6 49 -5.1 22.9
19:10 1007 29.74 837 24.72 4.6 40.4 49 -5.3 22.5
19:15 1007 29.74 836 24.69 4.6 40.2 49 -5.3 22.4
19:20 1007 29.74 836 24.69 4.5 40.1 49 -5.2 22.7
19:25 1007 29.74 836 24.69 4.4 40 50 -5.1 22.8
19:30 1007 29.74 836 24.69 4.5 40.1 46 -6.2 20.8
19:35 1007 29.74 836 24.69 4.6 40.3 45 -6.3 20.7
19:40 1007 29.74 836 24.69 4.6 40.3 45 -6.3 20.6
19:45 1007 29.74 836 24.69 4.6 40.2 44 -6.6 20
19:50 1007 29.74 836 24.69 4.7 40.5 40 -7.7 18.1
19:55 1007 29.74 836 24.69 5.4 41.6 40 -7.3 18.8
20:00 1007 29.74 836 24.69 5.4 41.7 41 -7 19.5
20:05 1007 29.74 836 24.69 5.2 41.4 42 -6.7 20
20:10 1007 29.74 836 24.69 5.1 41.1 43 -6.6 20.2
20:15 1007 29.74 836 24.69 4.9 40.8 45 -6.2 20.8
20:20 1007 29.74 836 24.69 4.8 40.6 43 -6.7 19.9
20:25 1007 29.74 836 24.69 4.8 40.6 39 -7.9 17.7
20:30 1007 29.74 836 24.69 5.2 41.4 40 -7.2 19
20:35 1007 29.74 836 24.69 5.2 41.3 40 -7.2 19
20:40 1007 29.74 836 24.69 5.3 41.5 40 -7.1 19.2
20:45 1007 29.74 836 24.69 5 41 42 -6.8 19.7
20:50 1007 29.74 836 24.69 5 40.9 41 -7.3 18.8
20:55 1007 29.74 836 24.69 4.9 40.8 41 -7.2 19
21:00 1007 29.74 836 24.69 4.8 40.6 41 -7.5 18.6
21:05 1007 29.74 836 24.69 4.6 40.3 42 -7.1 19.2
21:10 1007 29.74 836 24.69 4.6 40.2 43 -7.1 19.2
21:15 1007 29.74 836 24.69 4.4 39.9 43 -7.3 18.9
21:20 1007 29.74 836 24.69 4.3 39.8 42 -7.3 18.8
21:25 1007 29.74 836 24.69 4.4 39.9 43 -7 19.4
21:30 1007 29.74 836 24.69 4.2 39.6 44 -7.1 19.3
21:35 1007 29.74 836 24.69 4.2 39.5 45 -6.8 19.8
21:40 1007 29.74 836 24.69 4 39.2 49 -5.9 21.4
21:45 1007 29.74 836 24.69 3.6 38.5 49 -6.1 20.9
21:50 1007 29.74 836 24.69 3.4 38.1 51 -5.9 21.4
21:55 1007 29.74 836 24.69 3.5 38.2 46 -7.1 19.1
22:00 1007 29.74 836 24.69 4.2 39.5 44 -7 19.4
22:05 1006 29.71 836 24.69 4.2 39.6 45 -6.6 20.1
22:10 1006 29.71 836 24.69 4.3 39.7 44 -6.9 19.6
22:15 1006 29.71 836 24.69 4.3 39.7 44 -6.8 19.7
22:20 1006 29.71 836 24.69 4.4 40 44 -6.8 19.8
22:25 1006 29.71 835 24.66 4.3 39.8 45 -6.5 20.3
22:30 1006 29.71 836 24.69 4.4 39.9 45 -6.6 20.1
22:35 1006 29.71 835 24.66 4.2 39.6 47 -6.1 21
22:40 1006 29.71 835 24.66 4.1 39.5 47 -6.3 20.7
22:45 1006 29.71 835 24.66 3.9 39 47 -6.3 20.7
22:50 1006 29.71 835 24.66 3.5 38.3 50 -5.9 21.3
22:55 1006 29.71 835 24.66 3.3 37.9 50 -6.3 20.7
23:00 1006 29.71 835 24.66 3.4 38.1 49 -6.4 20.5
23:05 1006 29.71 835 24.66 3.5 38.2 49 -6.3 20.7
23:10 1006 29.71 835 24.66 3.5 38.3 48 -6.5 20.3
23:15 1006 29.71 835 24.66 3.5 38.4 48 -6.6 20.1
23:20 1006 29.71 835 24.66 3.4 38.1 53 -5.3 22.4
23:25 1006 29.71 835 24.66 3 37.3 53 -5.8 21.6
23:30 1006 29.71 835 24.66 2.7 36.9 58 -4.7 23.6
23:35 1006 29.71 835 24.66 2.6 36.6 57 -5.1 22.8
23:40 1006 29.71 836 24.69 2.4 36.4 58 -5 22.9
23:45 1006 29.71 836 24.69 2.3 36.1 55 -5.7 21.7
23:50 1006 29.71 836 24.69 2.5 36.5 55 -5.6 21.9
23:55 1006 29.71 836 24.69 2.5 36.5 56 -5.3 22.5
24:00 1007 29.74 836 24.69 2.4 36.4 57 -5.3 22.5